Alexander Maersk — OZRC2 — position and weather

sailwx.info

Track history (hours):
 
Tides and Currents Weather Stations Pressure Air Temp Water Temp Dewpoint Dewpoint Depression Visibility Wind Speed Wind Dir Waves Ship Positions

Alexander Maersk

Last reported at 2016-Apr-23 17:33 UTC. Time now 2016-May-06 01:45 UTC.
Position N 36°42' E 012°39'.
Warning: this ship's position is 12 days out of date.

Length 155 m; draft 8.5 m.

Type: Cargo ship. MMSI: 219470000.

Date/timePositionNaut miles runAvg speedWind from/ knotsBaromVisibWave heightAir tempDewpointWater temp
2016-Apr-23 17:33N 36°42' E 012°39'17 8.6
2016-Apr-23 15:33N 36°32' E 012°57'10 8.2
2016-Apr-23 14:23N 36°27' E 013°07'8 8.2
2016-Apr-23 13:27N 36°22' E 013°15'8 8.3
2016-Apr-23 12:30N 36°18' E 013°23'8 8.6
2016-Apr-23 11:32N 36°14' E 013°32'9 8.8
2016-Apr-23 10:33N 36°09' E 013°41'9 8.9
2016-Apr-23 09:33N 36°04' E 013°50'9 9.0
2016-Apr-23 08:33N 35°59' E 013°59'9 8.9
2016-Apr-23 07:33N 35°54' E 014°08'9 8.7
2016-Apr-23 06:33N 35°49' E 014°17'1111.4
2016-Apr-23 05:33N 35°46' E 014°30'4 0.1
2016-Apr-21 22:06N 35°49' E 014°33'2 3.7
2016-Apr-21 21:31N 35°48' E 014°35'5 4.8
2016-Apr-21 20:33N 35°50' E 014°40'0 0.3
2016-Apr-21 19:33N 35°50' E 014°40'0 0.0
2016-Apr-21 18:33N 35°50' E 014°40'0 0.1
2016-Apr-21 17:27N 35°50' E 014°40'0 0.0
2016-Apr-21 16:24N 35°50' E 014°40'0 0.0
2016-Apr-21 15:30N 35°50' E 014°40'0 0.1
2016-Apr-21 14:30N 35°50' E 014°40'0 0.1
2016-Apr-21 13:12N 35°50' E 014°40'0 0.1
2016-Apr-21 12:33N 35°50' E 014°40'0 0.0
2016-Apr-21 11:24N 35°50' E 014°40'0 0.1
2016-Apr-21 10:27N 35°50' E 014°40'0 0.0
2016-Apr-21 09:33N 35°50' E 014°40'0 0.0
2016-Apr-21 08:18N 35°50' E 014°40'0 0.0
2016-Apr-21 07:30N 35°50' E 014°40'0 0.1
2016-Apr-21 06:33N 35°50' E 014°40'0 0.0
2016-Apr-21 05:24N 35°50' E 014°40'0 0.0
2016-Apr-21 02:30N 35°50' E 014°40'0 0.0
2016-Apr-20 19:30N 35°50' E 014°40'0 0.1
2016-Apr-20 17:33N 35°50' E 014°40'0 0.0
2016-Apr-20 16:30N 35°50' E 014°40'0 0.0
2016-Apr-20 15:30N 35°50' E 014°40'0 0.0
2016-Apr-20 14:27N 35°50' E 014°40'0 0.1
2016-Apr-20 13:29N 35°50' E 014°41'4 4.1
2016-Apr-20 12:33N 35°47' E 014°39'8 8.4
2016-Apr-20 11:33N 35°39' E 014°36'9 8.6
2016-Apr-20 10:30N 35°30' E 014°33'8 8.9
2016-Apr-20 09:33N 35°21' E 014°32'9 9.2
2016-Apr-20 08:33N 35°12' E 014°31'9 9.3
2016-Apr-20 07:33N 35°03' E 014°30'10 8.9
2016-Apr-20 06:25N 34°53' E 014°30'17 8.9
2016-Apr-20 04:32N 34°36' E 014°28'18 9.0
2016-Apr-20 02:33N 34°18' E 014°26'98 2.3
2016-Apr-18 08:27N 32°41' E 014°15'4 3.9
2016-Apr-18 07:32N 32°41' E 014°19'7 0.5
2016-Apr-17 17:32N 32°42' E 014°27'10 9.6
2016-Apr-17 16:31N 32°38' E 014°38'14 9.7
2016-Apr-17 15:04N 32°33' E 014°54'14 9.3
2016-Apr-17 13:31N 32°28' E 015°09'6 6.4
2016-Apr-17 12:31N 32°22' E 015°13'1 0.6
2016-Apr-17 11:31N 32°22' E 015°13'0 0.0
2016-Apr-17 10:31N 32°22' E 015°13'0 0.0
2016-Apr-17 09:28N 32°22' E 015°13'0 0.0
2016-Apr-17 08:31N 32°22' E 015°13'0 0.0
2016-Apr-17 07:31N 32°22' E 015°13'0 0.0
2016-Apr-17 06:31N 32°22' E 015°13'0 0.0
2016-Apr-17 05:31N 32°22' E 015°13'0 0.0
2016-Apr-17 04:31N 32°22' E 015°13'0 0.0
2016-Apr-17 03:31N 32°22' E 015°13'0 0.0
2016-Apr-17 02:31N 32°22' E 015°13'0 0.0
2016-Apr-17 01:31N 32°22' E 015°13'0 0.0
2016-Apr-17 00:28N 32°22' E 015°13'0 0.0
2016-Apr-16 23:31N 32°22' E 015°13'0 0.0
2016-Apr-16 22:31N 32°22' E 015°13'0 0.0
2016-Apr-16 21:31N 32°22' E 015°13'0 0.0
2016-Apr-16 20:28N 32°22' E 015°13'0 0.0
2016-Apr-16 19:31N 32°22' E 015°13'0 0.0
2016-Apr-16 17:31N 32°22' E 015°13'0 0.0
2016-Apr-16 16:31N 32°22' E 015°13'0 0.0
2016-Apr-16 15:31N 32°22' E 015°13'0 0.0
2016-Apr-16 14:31N 32°22' E 015°13'0 0.0
2016-Apr-16 13:28N 32°22' E 015°13'0 0.0
2016-Apr-16 12:31N 32°22' E 015°13'0 0.0
2016-Apr-16 10:28N 32°22' E 015°13'0 0.0
2016-Apr-16 09:31N 32°22' E 015°13'0 0.0
2016-Apr-16 08:33N 32°22' E 015°13'0 0.0
2016-Apr-16 07:33N 32°22' E 015°13'0 0.0
2016-Apr-16 06:33N 32°22' E 015°13'0 0.0
2016-Apr-16 05:33N 32°22' E 015°13'0 0.0
2016-Apr-16 04:19N 32°22' E 015°13'0 0.0
2016-Apr-16 00:12N 32°22' E 015°13'0 0.0
2016-Apr-15 23:33N 32°22' E 015°13'0 0.0
2016-Apr-15 22:32N 32°22' E 015°13'0 0.0
2016-Apr-15 21:29N 32°22' E 015°13'197 5.8
2016-Apr-14 11:25N 35°36' E 014°37'1313.8
2016-Apr-14 10:28N 35°49' E 014°33'1 0.1
2016-Apr-14 04:31N 35°49' E 014°32'0 0.0
2016-Apr-14 03:31N 35°49' E 014°32'0 0.0
2016-Apr-14 02:31N 35°49' E 014°32'0 0.0
2016-Apr-13 22:04N 35°49' E 014°32'0 0.0
2016-Apr-13 21:31N 35°49' E 014°32'0 0.0
2016-Apr-13 20:31N 35°49' E 014°32'  
Track history (hours):
 
Tides and Currents Weather Stations Pressure Air Temp Water Temp Dewpoint Dewpoint Depression Visibility Wind Speed Wind Dir Waves Ship Positions

Alexander Maersk

Last reported at 2016-Apr-23 17:33 UTC. Time now 2016-May-06 01:45 UTC.
Position N 36°42' E 012°39'.
Warning: this ship's position is 12 days out of date.

Length 155 m; draft 8.5 m.

Type: Cargo ship. MMSI: 219470000.

Date/timePositionNaut miles runAvg speedWind from/ knotsBaromVisibWave heightAir tempDewpointWater temp
2016-Apr-23 17:33N 36°42' E 012°39'17 8.6
2016-Apr-23 15:33N 36°32' E 012°57'10 8.2
2016-Apr-23 14:23N 36°27' E 013°07'8 8.2
2016-Apr-23 13:27N 36°22' E 013°15'8 8.3
2016-Apr-23 12:30N 36°18' E 013°23'8 8.6
2016-Apr-23 11:32N 36°14' E 013°32'9 8.8
2016-Apr-23 10:33N 36°09' E 013°41'9 8.9
2016-Apr-23 09:33N 36°04' E 013°50'9 9.0
2016-Apr-23 08:33N 35°59' E 013°59'9 8.9
2016-Apr-23 07:33N 35°54' E 014°08'9 8.7
2016-Apr-23 06:33N 35°49' E 014°17'1111.4
2016-Apr-23 05:33N 35°46' E 014°30'4 0.1
2016-Apr-21 22:06N 35°49' E 014°33'2 3.7
2016-Apr-21 21:31N 35°48' E 014°35'5 4.8
2016-Apr-21 20:33N 35°50' E 014°40'0 0.3
2016-Apr-21 19:33N 35°50' E 014°40'0 0.0
2016-Apr-21 18:33N 35°50' E 014°40'0 0.1
2016-Apr-21 17:27N 35°50' E 014°40'0 0.0
2016-Apr-21 16:24N 35°50' E 014°40'0 0.0
2016-Apr-21 15:30N 35°50' E 014°40'0 0.1
2016-Apr-21 14:30N 35°50' E 014°40'0 0.1
2016-Apr-21 13:12N 35°50' E 014°40'0 0.1
2016-Apr-21 12:33N 35°50' E 014°40'0 0.0
2016-Apr-21 11:24N 35°50' E 014°40'0 0.1
2016-Apr-21 10:27N 35°50' E 014°40'0 0.0
2016-Apr-21 09:33N 35°50' E 014°40'0 0.0
2016-Apr-21 08:18N 35°50' E 014°40'0 0.0
2016-Apr-21 07:30N 35°50' E 014°40'0 0.1
2016-Apr-21 06:33N 35°50' E 014°40'0 0.0
2016-Apr-21 05:24N 35°50' E 014°40'0 0.0
2016-Apr-21 02:30N 35°50' E 014°40'0 0.0
2016-Apr-20 19:30N 35°50' E 014°40'0 0.1
2016-Apr-20 17:33N 35°50' E 014°40'0 0.0
2016-Apr-20 16:30N 35°50' E 014°40'0 0.0
2016-Apr-20 15:30N 35°50' E 014°40'0 0.0
2016-Apr-20 14:27N 35°50' E 014°40'0 0.1
2016-Apr-20 13:29N 35°50' E 014°41'4 4.1
2016-Apr-20 12:33N 35°47' E 014°39'8 8.4
2016-Apr-20 11:33N 35°39' E 014°36'9 8.6
2016-Apr-20 10:30N 35°30' E 014°33'8 8.9
2016-Apr-20 09:33N 35°21' E 014°32'9 9.2
2016-Apr-20 08:33N 35°12' E 014°31'9 9.3
2016-Apr-20 07:33N 35°03' E 014°30'10 8.9
2016-Apr-20 06:25N 34°53' E 014°30'17 8.9
2016-Apr-20 04:32N 34°36' E 014°28'18 9.0
2016-Apr-20 02:33N 34°18' E 014°26'98 2.3
2016-Apr-18 08:27N 32°41' E 014°15'4 3.9
2016-Apr-18 07:32N 32°41' E 014°19'7 0.5
2016-Apr-17 17:32N 32°42' E 014°27'10 9.6
2016-Apr-17 16:31N 32°38' E 014°38'14 9.7
2016-Apr-17 15:04N 32°33' E 014°54'14 9.3
2016-Apr-17 13:31N 32°28' E 015°09'6 6.4
2016-Apr-17 12:31N 32°22' E 015°13'1 0.6
2016-Apr-17 11:31N 32°22' E 015°13'0 0.0
2016-Apr-17 10:31N 32°22' E 015°13'0 0.0
2016-Apr-17 09:28N 32°22' E 015°13'0 0.0
2016-Apr-17 08:31N 32°22' E 015°13'0 0.0
2016-Apr-17 07:31N 32°22' E 015°13'0 0.0
2016-Apr-17 06:31N 32°22' E 015°13'0 0.0
2016-Apr-17 05:31N 32°22' E 015°13'0 0.0
2016-Apr-17 04:31N 32°22' E 015°13'0 0.0
2016-Apr-17 03:31N 32°22' E 015°13'0 0.0
2016-Apr-17 02:31N 32°22' E 015°13'0 0.0
2016-Apr-17 01:31N 32°22' E 015°13'0 0.0
2016-Apr-17 00:28N 32°22' E 015°13'0 0.0
2016-Apr-16 23:31N 32°22' E 015°13'0 0.0
2016-Apr-16 22:31N 32°22' E 015°13'0 0.0
2016-Apr-16 21:31N 32°22' E 015°13'0 0.0
2016-Apr-16 20:28N 32°22' E 015°13'0 0.0
2016-Apr-16 19:31N 32°22' E 015°13'0 0.0
2016-Apr-16 17:31N 32°22' E 015°13'0 0.0
2016-Apr-16 16:31N 32°22' E 015°13'0 0.0
2016-Apr-16 15:31N 32°22' E 015°13'0 0.0
2016-Apr-16 14:31N 32°22' E 015°13'0 0.0
2016-Apr-16 13:28N 32°22' E 015°13'0 0.0
2016-Apr-16 12:31N 32°22' E 015°13'0 0.0
2016-Apr-16 10:28N 32°22' E 015°13'0 0.0
2016-Apr-16 09:31N 32°22' E 015°13'0 0.0
2016-Apr-16 08:33N 32°22' E 015°13'0 0.0
2016-Apr-16 07:33N 32°22' E 015°13'0 0.0
2016-Apr-16 06:33N 32°22' E 015°13'0 0.0
2016-Apr-16 05:33N 32°22' E 015°13'0 0.0
2016-Apr-16 04:19N 32°22' E 015°13'0 0.0
2016-Apr-16 00:12N 32°22' E 015°13'0 0.0
2016-Apr-15 23:33N 32°22' E 015°13'0 0.0
2016-Apr-15 22:32N 32°22' E 015°13'0 0.0
2016-Apr-15 21:29N 32°22' E 015°13'197 5.8
2016-Apr-14 11:25N 35°36' E 014°37'1313.8
2016-Apr-14 10:28N 35°49' E 014°33'1 0.1
2016-Apr-14 04:31N 35°49' E 014°32'0 0.0
2016-Apr-14 03:31N 35°49' E 014°32'0 0.0
2016-Apr-14 02:31N 35°49' E 014°32'0 0.0
2016-Apr-13 22:04N 35°49' E 014°32'0 0.0
2016-Apr-13 21:31N 35°49' E 014°32'0 0.0
2016-Apr-13 20:31N 35°49' E 014°32'  

Dump ship's entire track history